Windermere, Canada
Current Conditions -  °F | °C
As of 11:00 AM on Saturday 25 Oct 2014 (Local Time) from CYXC Reporting Station
Overcast Overcast  
Wind Chill: 41°   Ceiling: 18000
Heat Index: 41°   Visibility: 25mi
Dew Point: 32°   Wind: 0mph
Humidity: 70%   Direction: NA
Pressure: 29.84"   Gusts: NA
Location:  50.47°N, 115.97°W
Report Text: CYXC 251700Z 00000KT 25SM FEW040 OVC180 05/00 A2984 RMK SC1AC7 SLP125
Loading
Personal Weather Stations






























Interactive Weather Map New forecast layout! Learn more

10-Day Weather Forecast

Advertisements
Track Severe Weather on mobile